classicvacations.com alexa rank chart, classicvacations.com alexa rank daily changes

classicvacations.com alexa rank chart, classicvacations.com alexa rank daily changes

classicvacations.com
Actual rank:
522 011

RANK HISTORY

Date Rank Diff
2017/06/27 522 011 +24 846
2017/06/26 497 165 -39 111
2017/06/25 536 276 -13 870
2017/06/24 550 146 -13 715
2017/06/23 563 861 -16 358
2017/06/22 580 219 +3 121
2017/06/21 577 098 +3 324
2017/06/20 573 774 +3 270
2017/06/19 570 504 +10 720
2017/06/18 559 784 +14 647
2017/06/17 545 137 +14 748
2017/06/16 530 389 -5 003
2017/06/15 535 392 -13 704
2017/06/14 549 096 +8 468
2017/06/13 540 628 -4 131
2017/06/12 544 759 +2 628
2017/06/11 542 131 -9 171
2017/06/10 551 302 -24 605
2017/06/09 575 907 -5 651
2017/06/08 581 558 +11 839
2017/06/07 569 719 -9 065
2017/06/06 578 784 +13 384
2017/06/05 565 400 -40 079
2017/06/04 605 479 -4 855
2017/06/03 610 334 -14 294
2017/06/02 624 628 +2 705
2017/06/01 621 923 +16 579
2017/05/31 605 344 +21 181
2017/05/30 584 163 +4 389
2017/05/29 579 774 -51 225
2017/05/28 630 999 +7 970
2017/05/27 623 029 -24 456
2017/05/26 647 485 +37 487
2017/05/25 609 998 +143
2017/05/24 609 855 -14 100
2017/05/23 623 955 +7 766
2017/05/22 616 189 +14 884
2017/05/21 601 305 +7 691
2017/05/20 593 614 +1 611
2017/05/19 592 003 -8 320
2017/05/18 600 323 -4 088
2017/05/17 604 411 -7 220
2017/05/16 611 631 +7 165
2017/05/15 604 466 +15 261
2017/05/14 589 205 -21 443
2017/05/13 610 648 -6 718
2017/05/12 617 366 -2 227
2017/05/11 619 593 +10 009
2017/05/10 609 584 +27 402
2017/05/09 582 182 -3 424
2017/05/08 585 606 -9 795
2017/05/07 595 401 +8 687
2017/05/06 586 714 +2 404
2017/05/05 584 310 -12 155
2017/05/04 596 465 -2 908
2017/05/03 599 373 +42 589
2017/05/02 556 784 +6 151
2017/05/01 550 633 +2 885
2017/04/30 547 748 +12 284
2017/04/29 535 464 +10 927
2017/04/28 524 537

WIDGET FOR YOUR SITE

DOMAINS WITH THE NEAREST RANK

Domain Rank
cineplexx.hr 522 006
chinasquare.be 522 007
optionsxpress.com.au 522 008
netmaaslari.com 522 009
shitijun.com 522 010
classicvacations.com 522 011
yousign.fr 522 012
speedinvoice3.net 522 013
territoryhelper.com 522 014
mjcc.ru 522 015
serviceportal-kassel.de 522 016

DOMAINS WITH THE NEAREST RANK BY TLD .com

Domain Rank
ijcst.com 521 998
talkingstickresort.com 522 000
mysoutex.com 522 003
netmaaslari.com 522 009
shitijun.com 522 010
classicvacations.com 522 011
territoryhelper.com 522 014
shopatorient.com 522 018
hudsonvalleynewsnetwork.com 522 020
seikouknowhow.com 522 021
zanadia.com 522 023